Terminal Aerodrome Forecast
Issued by NWS

Home | Current Version | Previous Version | Graphics & Text | Print | Product List | Glossary On
Versions: 1 2 3 4 5 6 7 8 9 10 11 12 13 14 15 16
776
FTUS43 KABR 211140
TAFPIR
TAF
KPIR 211140Z 2112/2212 14016G24KT P6SM BKN050
     FM211500 14020G30KT P6SM OVC020
     FM211800 15023G33KT P6SM BKN035
     FM220200 13015KT P6SM OVC025
     FM220900 13015KT P6SM VCSH OVC015=

USA.gov is the U.S. government's official web portal to all federal, state and local government web resources and services.